sensor_id;sensor_type;location;lat;lon;timestamp;P1;durP1;ratioP1;P2;durP2;ratioP2
51862;SDS011;37900;52.996;6.278;2023-01-15T00:01:03;2.70;;;1.52;;
51862;SDS011;37900;52.996;6.278;2023-01-15T00:03:29;2.93;;;1.30;;
51862;SDS011;37900;52.996;6.278;2023-01-15T00:06:00;6.30;;;1.60;;
51862;SDS011;37900;52.996;6.278;2023-01-15T00:08:28;4.43;;;1.33;;
51862;SDS011;37900;52.996;6.278;2023-01-15T00:10:54;6.22;;;1.67;;
51862;SDS011;37900;52.996;6.278;2023-01-15T00:13:20;2.05;;;1.20;;
51862;SDS011;37900;52.996;6.278;2023-01-15T00:15:46;3.97;;;1.30;;
51862;SDS011;37900;52.996;6.278;2023-01-15T00:18:12;4.22;;;1.65;;
51862;SDS011;37900;52.996;6.278;2023-01-15T00:20:38;2.42;;;1.40;;
51862;SDS011;37900;52.996;6.278;2023-01-15T00:23:03;4.20;;;1.52;;
51862;SDS011;37900;52.996;6.278;2023-01-15T00:25:29;2.10;;;1.13;;
51862;SDS011;37900;52.996;6.278;2023-01-15T00:28:14;2.13;;;1.25;;
51862;SDS011;37900;52.996;6.278;2023-01-15T00:30:40;4.45;;;1.10;;
51862;SDS011;37900;52.996;6.278;2023-01-15T00:33:06;2.37;;;1.10;;
51862;SDS011;37900;52.996;6.278;2023-01-15T00:35:33;3.60;;;1.50;;
51862;SDS011;37900;52.996;6.278;2023-01-15T00:37:58;2.72;;;1.40;;
51862;SDS011;37900;52.996;6.278;2023-01-15T00:40:24;2.50;;;1.33;;
51862;SDS011;37900;52.996;6.278;2023-01-15T00:42:50;1.60;;;0.88;;
51862;SDS011;37900;52.996;6.278;2023-01-15T00:45:15;1.90;;;1.25;;
51862;SDS011;37900;52.996;6.278;2023-01-15T00:47:42;2.08;;;1.25;;
51862;SDS011;37900;52.996;6.278;2023-01-15T00:52:36;3.03;;;1.20;;
51862;SDS011;37900;52.996;6.278;2023-01-15T00:55:02;4.28;;;0.98;;
51862;SDS011;37900;52.996;6.278;2023-01-15T00:57:28;1.95;;;1.15;;
51862;SDS011;37900;52.996;6.278;2023-01-15T00:59:53;3.67;;;1.40;;
51862;SDS011;37900;52.996;6.278;2023-01-15T01:02:19;1.75;;;1.15;;
51862;SDS011;37900;52.996;6.278;2023-01-15T01:04:45;2.05;;;1.23;;
51862;SDS011;37900;52.996;6.278;2023-01-15T01:07:11;2.33;;;1.02;;
51862;SDS011;37900;52.996;6.278;2023-01-15T01:09:37;4.38;;;1.25;;
51862;SDS011;37900;52.996;6.278;2023-01-15T01:12:03;2.33;;;1.13;;
51862;SDS011;37900;52.996;6.278;2023-01-15T01:14:29;2.75;;;1.20;;
51862;SDS011;37900;52.996;6.278;2023-01-15T01:16:55;1.42;;;0.98;;
51862;SDS011;37900;52.996;6.278;2023-01-15T01:19:21;1.48;;;1.05;;
51862;SDS011;37900;52.996;6.278;2023-01-15T01:21:48;2.42;;;1.25;;
51862;SDS011;37900;52.996;6.278;2023-01-15T01:24:16;1.90;;;0.80;;
51862;SDS011;37900;52.996;6.278;2023-01-15T01:26:44;1.80;;;1.02;;
51862;SDS011;37900;52.996;6.278;2023-01-15T01:29:12;2.53;;;1.20;;
51862;SDS011;37900;52.996;6.278;2023-01-15T01:31:42;1.85;;;0.95;;
51862;SDS011;37900;52.996;6.278;2023-01-15T01:34:08;1.58;;;0.95;;
51862;SDS011;37900;52.996;6.278;2023-01-15T01:36:36;2.25;;;1.33;;
51862;SDS011;37900;52.996;6.278;2023-01-15T01:39:05;1.23;;;1.13;;
51862;SDS011;37900;52.996;6.278;2023-01-15T01:41:31;1.75;;;0.90;;
51862;SDS011;37900;52.996;6.278;2023-01-15T01:43:59;2.33;;;1.35;;
51862;SDS011;37900;52.996;6.278;2023-01-15T01:46:26;1.95;;;1.20;;
51862;SDS011;37900;52.996;6.278;2023-01-15T01:48:54;2.60;;;1.23;;
51862;SDS011;37900;52.996;6.278;2023-01-15T01:51:38;2.13;;;1.17;;
51862;SDS011;37900;52.996;6.278;2023-01-15T01:54:07;1.55;;;0.98;;
51862;SDS011;37900;52.996;6.278;2023-01-15T01:56:35;2.92;;;1.10;;
51862;SDS011;37900;52.996;6.278;2023-01-15T01:59:01;2.00;;;1.10;;
51862;SDS011;37900;52.996;6.278;2023-01-15T02:01:28;2.28;;;0.95;;
51862;SDS011;37900;52.996;6.278;2023-01-15T02:03:54;2.25;;;1.25;;
51862;SDS011;37900;52.996;6.278;2023-01-15T02:06:20;1.92;;;0.95;;
51862;SDS011;37900;52.996;6.278;2023-01-15T02:08:48;1.70;;;0.98;;
51862;SDS011;37900;52.996;6.278;2023-01-15T02:11:15;2.30;;;0.90;;
51862;SDS011;37900;52.996;6.278;2023-01-15T02:13:52;3.17;;;1.50;;
51862;SDS011;37900;52.996;6.278;2023-01-15T02:21:32;2.47;;;1.10;;
51862;SDS011;37900;52.996;6.278;2023-01-15T02:25:18;3.25;;;1.10;;
51862;SDS011;37900;52.996;6.278;2023-01-15T02:27:24;4.15;;;1.30;;
51862;SDS011;37900;52.996;6.278;2023-01-15T02:30:34;3.15;;;1.00;;
51862;SDS011;37900;52.996;6.278;2023-01-15T02:32:54;2.95;;;1.08;;
51862;SDS011;37900;52.996;6.278;2023-01-15T02:35:40;2.95;;;1.08;;
51862;SDS011;37900;52.996;6.278;2023-01-15T02:38:13;1.95;;;1.05;;
51862;SDS011;37900;52.996;6.278;2023-01-15T02:40:42;1.77;;;1.10;;
51862;SDS011;37900;52.996;6.278;2023-01-15T02:43:08;2.13;;;1.10;;
51862;SDS011;37900;52.996;6.278;2023-01-15T02:45:35;1.48;;;0.98;;
51862;SDS011;37900;52.996;6.278;2023-01-15T02:48:10;1.50;;;0.90;;
51862;SDS011;37900;52.996;6.278;2023-01-15T02:50:45;1.65;;;0.95;;
51862;SDS011;37900;52.996;6.278;2023-01-15T02:53:18;1.73;;;1.10;;
51862;SDS011;37900;52.996;6.278;2023-01-15T02:55:48;2.60;;;1.13;;
51862;SDS011;37900;52.996;6.278;2023-01-15T02:58:16;2.92;;;0.90;;
51862;SDS011;37900;52.996;6.278;2023-01-15T03:00:47;2.88;;;1.38;;
51862;SDS011;37900;52.996;6.278;2023-01-15T03:06:07;2.00;;;1.08;;
51862;SDS011;37900;52.996;6.278;2023-01-15T03:08:41;1.75;;;1.10;;
51862;SDS011;37900;52.996;6.278;2023-01-15T03:11:08;1.60;;;1.10;;
51862;SDS011;37900;52.996;6.278;2023-01-15T03:16:07;1.58;;;1.08;;
51862;SDS011;37900;52.996;6.278;2023-01-15T03:19:00;3.30;;;1.23;;
51862;SDS011;37900;52.996;6.278;2023-01-15T03:21:31;1.45;;;0.90;;
51862;SDS011;37900;52.996;6.278;2023-01-15T03:24:01;2.28;;;1.17;;
51862;SDS011;37900;52.996;6.278;2023-01-15T03:26:30;1.13;;;0.90;;
51862;SDS011;37900;52.996;6.278;2023-01-15T03:28:56;2.03;;;1.23;;
51862;SDS011;37900;52.996;6.278;2023-01-15T03:31:23;1.60;;;1.23;;
51862;SDS011;37900;52.996;6.278;2023-01-15T03:33:49;3.25;;;1.00;;
51862;SDS011;37900;52.996;6.278;2023-01-15T03:36:15;1.65;;;1.05;;
51862;SDS011;37900;52.996;6.278;2023-01-15T03:38:40;2.72;;;1.30;;
51862;SDS011;37900;52.996;6.278;2023-01-15T03:41:14;1.90;;;1.00;;
51862;SDS011;37900;52.996;6.278;2023-01-15T03:57:36;1.63;;;1.20;;
51862;SDS011;37900;52.996;6.278;2023-01-15T04:00:25;2.75;;;1.27;;
51862;SDS011;37900;52.996;6.278;2023-01-15T04:02:55;2.47;;;1.15;;
51862;SDS011;37900;52.996;6.278;2023-01-15T04:05:23;2.88;;;0.90;;
51862;SDS011;37900;52.996;6.278;2023-01-15T04:07:50;4.18;;;1.00;;
51862;SDS011;37900;52.996;6.278;2023-01-15T04:10:18;2.88;;;1.10;;
51862;SDS011;37900;52.996;6.278;2023-01-15T04:12:43;3.15;;;1.05;;
51862;SDS011;37900;52.996;6.278;2023-01-15T04:15:10;2.65;;;1.05;;
51862;SDS011;37900;52.996;6.278;2023-01-15T04:17:36;1.65;;;1.33;;
51862;SDS011;37900;52.996;6.278;2023-01-15T04:20:02;1.27;;;0.80;;
51862;SDS011;37900;52.996;6.278;2023-01-15T04:22:29;1.63;;;1.05;;
51862;SDS011;37900;52.996;6.278;2023-01-15T04:24:55;1.58;;;1.00;;
51862;SDS011;37900;52.996;6.278;2023-01-15T04:27:21;1.88;;;1.20;;
51862;SDS011;37900;52.996;6.278;2023-01-15T04:29:46;3.17;;;1.20;;
51862;SDS011;37900;52.996;6.278;2023-01-15T04:32:12;1.42;;;1.00;;
51862;SDS011;37900;52.996;6.278;2023-01-15T04:34:38;1.70;;;0.80;;
51862;SDS011;37900;52.996;6.278;2023-01-15T04:37:04;1.83;;;1.08;;
51862;SDS011;37900;52.996;6.278;2023-01-15T04:39:30;2.22;;;1.10;;
51862;SDS011;37900;52.996;6.278;2023-01-15T04:41:56;1.70;;;0.90;;
51862;SDS011;37900;52.996;6.278;2023-01-15T04:44:40;2.60;;;1.20;;
51862;SDS011;37900;52.996;6.278;2023-01-15T04:47:06;2.42;;;1.10;;
51862;SDS011;37900;52.996;6.278;2023-01-15T04:49:32;1.95;;;0.80;;
51862;SDS011;37900;52.996;6.278;2023-01-15T04:51:58;2.90;;;1.30;;
51862;SDS011;37900;52.996;6.278;2023-01-15T04:54:24;3.90;;;0.98;;
51862;SDS011;37900;52.996;6.278;2023-01-15T04:56:51;2.90;;;1.23;;
51862;SDS011;37900;52.996;6.278;2023-01-15T05:01:44;2.17;;;1.00;;
51862;SDS011;37900;52.996;6.278;2023-01-15T05:04:10;1.67;;;0.82;;
51862;SDS011;37900;52.996;6.278;2023-01-15T05:06:36;1.30;;;1.02;;
51862;SDS011;37900;52.996;6.278;2023-01-15T05:09:02;1.65;;;0.90;;
51862;SDS011;37900;52.996;6.278;2023-01-15T05:11:29;1.42;;;1.05;;
51862;SDS011;37900;52.996;6.278;2023-01-15T05:13:54;1.90;;;0.88;;
51862;SDS011;37900;52.996;6.278;2023-01-15T05:16:21;2.30;;;1.35;;
51862;SDS011;37900;52.996;6.278;2023-01-15T05:18:49;2.38;;;0.60;;
51862;SDS011;37900;52.996;6.278;2023-01-15T05:21:23;1.30;;;0.80;;
51862;SDS011;37900;52.996;6.278;2023-01-15T05:23:55;1.33;;;1.00;;
51862;SDS011;37900;52.996;6.278;2023-01-15T05:26:24;2.50;;;1.02;;
51862;SDS011;37900;52.996;6.278;2023-01-15T05:28:54;1.63;;;0.80;;
51862;SDS011;37900;52.996;6.278;2023-01-15T05:31:22;2.10;;;1.08;;
51862;SDS011;37900;52.996;6.278;2023-01-15T05:33:49;2.35;;;1.50;;
51862;SDS011;37900;52.996;6.278;2023-01-15T05:36:16;0.60;;;0.60;;
51862;SDS011;37900;52.996;6.278;2023-01-15T05:38:43;1.05;;;0.77;;
51862;SDS011;37900;52.996;6.278;2023-01-15T05:41:14;2.15;;;0.95;;
51862;SDS011;37900;52.996;6.278;2023-01-15T05:44:00;1.88;;;1.13;;
51862;SDS011;37900;52.996;6.278;2023-01-15T05:46:29;3.33;;;1.15;;
51862;SDS011;37900;52.996;6.278;2023-01-15T05:49:02;3.93;;;1.10;;
51862;SDS011;37900;52.996;6.278;2023-01-15T05:51:30;1.98;;;0.90;;
51862;SDS011;37900;52.996;6.278;2023-01-15T05:53:56;1.73;;;0.98;;
51862;SDS011;37900;52.996;6.278;2023-01-15T05:56:22;2.90;;;1.17;;
51862;SDS011;37900;52.996;6.278;2023-01-15T05:58:48;2.35;;;1.15;;
51862;SDS011;37900;52.996;6.278;2023-01-15T06:01:13;1.42;;;0.80;;
51862;SDS011;37900;52.996;6.278;2023-01-15T06:03:39;1.17;;;0.68;;
51862;SDS011;37900;52.996;6.278;2023-01-15T06:06:05;2.80;;;0.93;;
51862;SDS011;37900;52.996;6.278;2023-01-15T06:08:31;1.25;;;0.95;;
51862;SDS011;37900;52.996;6.278;2023-01-15T06:10:57;1.55;;;0.88;;
51862;SDS011;37900;52.996;6.278;2023-01-15T06:13:23;2.28;;;1.08;;
51862;SDS011;37900;52.996;6.278;2023-01-15T06:15:49;1.30;;;0.90;;
51862;SDS011;37900;52.996;6.278;2023-01-15T06:18:15;3.42;;;1.25;;
51862;SDS011;37900;52.996;6.278;2023-01-15T06:20:40;2.50;;;0.90;;
51862;SDS011;37900;52.996;6.278;2023-01-15T06:23:07;1.80;;;1.25;;
51862;SDS011;37900;52.996;6.278;2023-01-15T06:25:36;1.65;;;0.90;;
51862;SDS011;37900;52.996;6.278;2023-01-15T06:28:02;1.65;;;0.95;;
51862;SDS011;37900;52.996;6.278;2023-01-15T06:30:28;3.47;;;1.10;;
51862;SDS011;37900;52.996;6.278;2023-01-15T06:32:54;1.90;;;1.02;;
51862;SDS011;37900;52.996;6.278;2023-01-15T06:35:20;1.67;;;0.77;;
51862;SDS011;37900;52.996;6.278;2023-01-15T06:37:47;2.10;;;1.15;;
51862;SDS011;37900;52.996;6.278;2023-01-15T06:40:14;1.60;;;0.90;;
51862;SDS011;37900;52.996;6.278;2023-01-15T06:42:40;2.17;;;0.80;;
51862;SDS011;37900;52.996;6.278;2023-01-15T06:45:24;2.10;;;0.90;;
51862;SDS011;37900;52.996;6.278;2023-01-15T06:48:10;1.42;;;0.73;;
51862;SDS011;37900;52.996;6.278;2023-01-15T06:50:36;1.15;;;0.70;;
51862;SDS011;37900;52.996;6.278;2023-01-15T06:53:01;1.35;;;1.00;;
51862;SDS011;37900;52.996;6.278;2023-01-15T06:55:27;1.95;;;0.85;;
51862;SDS011;37900;52.996;6.278;2023-01-15T06:57:53;2.58;;;1.15;;
51862;SDS011;37900;52.996;6.278;2023-01-15T07:00:18;1.85;;;0.93;;
51862;SDS011;37900;52.996;6.278;2023-01-15T07:02:44;2.45;;;1.33;;
51862;SDS011;37900;52.996;6.278;2023-01-15T07:05:10;1.70;;;1.10;;
51862;SDS011;37900;52.996;6.278;2023-01-15T07:07:36;2.55;;;1.10;;
51862;SDS011;37900;52.996;6.278;2023-01-15T07:10:01;1.88;;;0.88;;
51862;SDS011;37900;52.996;6.278;2023-01-15T07:12:27;1.80;;;0.80;;
51862;SDS011;37900;52.996;6.278;2023-01-15T07:14:54;2.38;;;1.02;;
51862;SDS011;37900;52.996;6.278;2023-01-15T07:17:20;2.10;;;1.00;;
51862;SDS011;37900;52.996;6.278;2023-01-15T07:19:45;2.92;;;1.00;;
51862;SDS011;37900;52.996;6.278;2023-01-15T07:22:11;2.78;;;0.90;;
51862;SDS011;37900;52.996;6.278;2023-01-15T07:24:37;2.65;;;1.30;;
51862;SDS011;37900;52.996;6.278;2023-01-15T07:27:03;1.63;;;0.80;;
51862;SDS011;37900;52.996;6.278;2023-01-15T07:29:29;2.42;;;1.10;;
51862;SDS011;37900;52.996;6.278;2023-01-15T07:31:55;1.20;;;0.70;;
51862;SDS011;37900;52.996;6.278;2023-01-15T07:34:21;2.70;;;1.20;;
51862;SDS011;37900;52.996;6.278;2023-01-15T07:36:46;3.45;;;1.20;;
51862;SDS011;37900;52.996;6.278;2023-01-15T07:39:13;1.55;;;1.08;;
51862;SDS011;37900;52.996;6.278;2023-01-15T07:41:39;1.50;;;0.98;;
51862;SDS011;37900;52.996;6.278;2023-01-15T07:44:23;2.63;;;1.20;;
51862;SDS011;37900;52.996;6.278;2023-01-15T07:47:16;2.10;;;0.93;;
51862;SDS011;37900;52.996;6.278;2023-01-15T07:50:06;2.75;;;1.02;;
51862;SDS011;37900;52.996;6.278;2023-01-15T07:52:33;1.98;;;0.95;;
51862;SDS011;37900;52.996;6.278;2023-01-15T07:54:59;1.63;;;0.82;;
51862;SDS011;37900;52.996;6.278;2023-01-15T07:57:27;1.90;;;0.70;;
51862;SDS011;37900;52.996;6.278;2023-01-15T07:59:54;1.20;;;0.85;;
51862;SDS011;37900;52.996;6.278;2023-01-15T08:02:20;1.48;;;0.80;;
51862;SDS011;37900;52.996;6.278;2023-01-15T08:04:45;2.33;;;1.25;;
51862;SDS011;37900;52.996;6.278;2023-01-15T08:07:12;1.73;;;0.75;;
51862;SDS011;37900;52.996;6.278;2023-01-15T08:09:39;0.57;;;0.57;;
51862;SDS011;37900;52.996;6.278;2023-01-15T08:12:05;1.23;;;0.80;;
51862;SDS011;37900;52.996;6.278;2023-01-15T08:14:50;1.58;;;0.95;;
51862;SDS011;37900;52.996;6.278;2023-01-15T08:17:34;2.58;;;1.15;;
51862;SDS011;37900;52.996;6.278;2023-01-15T08:20:04;1.63;;;0.90;;
51862;SDS011;37900;52.996;6.278;2023-01-15T08:22:41;3.88;;;1.10;;
51862;SDS011;37900;52.996;6.278;2023-01-15T08:25:08;1.05;;;0.70;;
51862;SDS011;37900;52.996;6.278;2023-01-15T08:27:36;3.55;;;1.42;;
51862;SDS011;37900;52.996;6.278;2023-01-15T08:30:03;1.50;;;0.83;;
51862;SDS011;37900;52.996;6.278;2023-01-15T08:32:30;1.70;;;1.20;;
51862;SDS011;37900;52.996;6.278;2023-01-15T08:34:56;2.75;;;0.95;;
51862;SDS011;37900;52.996;6.278;2023-01-15T08:37:22;1.55;;;0.73;;
51862;SDS011;37900;52.996;6.278;2023-01-15T08:39:48;6.10;;;1.40;;
51862;SDS011;37900;52.996;6.278;2023-01-15T08:44:41;4.95;;;1.60;;
51862;SDS011;37900;52.996;6.278;2023-01-15T08:47:06;5.55;;;1.58;;
51862;SDS011;37900;52.996;6.278;2023-01-15T08:49:32;4.55;;;1.67;;
51862;SDS011;37900;52.996;6.278;2023-01-15T08:51:58;6.72;;;2.70;;
51862;SDS011;37900;52.996;6.278;2023-01-15T08:54:25;6.28;;;2.30;;
51862;SDS011;37900;52.996;6.278;2023-01-15T08:56:50;3.63;;;2.13;;
51862;SDS011;37900;52.996;6.278;2023-01-15T08:59:16;5.88;;;2.45;;
51862;SDS011;37900;52.996;6.278;2023-01-15T09:01:42;6.03;;;2.10;;
51862;SDS011;37900;52.996;6.278;2023-01-15T09:04:15;5.90;;;1.70;;
51862;SDS011;37900;52.996;6.278;2023-01-15T09:06:42;7.65;;;2.20;;
51862;SDS011;37900;52.996;6.278;2023-01-15T09:09:09;5.78;;;2.35;;
51862;SDS011;37900;52.996;6.278;2023-01-15T09:11:35;4.38;;;1.55;;
51862;SDS011;37900;52.996;6.278;2023-01-15T09:14:04;8.07;;;1.98;;
51862;SDS011;37900;52.996;6.278;2023-01-15T09:16:36;6.53;;;1.73;;
51862;SDS011;37900;52.996;6.278;2023-01-15T09:19:03;4.78;;;1.80;;
51862;SDS011;37900;52.996;6.278;2023-01-15T09:21:30;2.63;;;1.25;;
51862;SDS011;37900;52.996;6.278;2023-01-15T09:23:57;5.15;;;1.92;;
51862;SDS011;37900;52.996;6.278;2023-01-15T09:26:44;3.45;;;1.65;;
51862;SDS011;37900;52.996;6.278;2023-01-15T09:29:08;4.43;;;1.38;;
51862;SDS011;37900;52.996;6.278;2023-01-15T09:31:34;5.35;;;1.58;;
51862;SDS011;37900;52.996;6.278;2023-01-15T09:34:00;4.70;;;1.75;;
51862;SDS011;37900;52.996;6.278;2023-01-15T09:36:30;3.65;;;1.40;;
51862;SDS011;37900;52.996;6.278;2023-01-15T09:38:58;4.35;;;1.60;;
51862;SDS011;37900;52.996;6.278;2023-01-15T09:41:26;3.47;;;1.55;;
51862;SDS011;37900;52.996;6.278;2023-01-15T09:47:07;2.50;;;1.33;;
51862;SDS011;37900;52.996;6.278;2023-01-15T09:55:12;4.35;;;1.33;;
51862;SDS011;37900;52.996;6.278;2023-01-15T09:57:43;2.72;;;1.20;;
51862;SDS011;37900;52.996;6.278;2023-01-15T10:00:12;3.53;;;1.48;;
51862;SDS011;37900;52.996;6.278;2023-01-15T10:05:34;4.93;;;1.73;;
51862;SDS011;37900;52.996;6.278;2023-01-15T10:10:40;3.13;;;1.55;;
51862;SDS011;37900;52.996;6.278;2023-01-15T10:13:20;4.57;;;2.33;;
51862;SDS011;37900;52.996;6.278;2023-01-15T10:15:55;5.22;;;2.20;;
51862;SDS011;37900;52.996;6.278;2023-01-15T10:18:22;3.22;;;1.83;;
51862;SDS011;37900;52.996;6.278;2023-01-15T10:23:28;5.40;;;2.10;;
51862;SDS011;37900;52.996;6.278;2023-01-15T10:31:13;4.93;;;2.15;;
51862;SDS011;37900;52.996;6.278;2023-01-15T10:47:49;3.72;;;2.17;;
51862;SDS011;37900;52.996;6.278;2023-01-15T10:50:37;3.47;;;2.10;;
51862;SDS011;37900;52.996;6.278;2023-01-15T10:53:15;6.28;;;2.38;;
51862;SDS011;37900;52.996;6.278;2023-01-15T10:58:52;7.10;;;2.42;;
51862;SDS011;37900;52.996;6.278;2023-01-15T11:01:32;5.78;;;1.90;;
51862;SDS011;37900;52.996;6.278;2023-01-15T11:03:58;5.13;;;2.10;;
51862;SDS011;37900;52.996;6.278;2023-01-15T11:06:24;4.30;;;2.15;;
51862;SDS011;37900;52.996;6.278;2023-01-15T11:08:54;5.38;;;2.20;;
51862;SDS011;37900;52.996;6.278;2023-01-15T11:11:24;4.18;;;1.90;;
51862;SDS011;37900;52.996;6.278;2023-01-15T11:14:30;3.40;;;1.75;;
51862;SDS011;37900;52.996;6.278;2023-01-15T11:17:15;2.60;;;1.80;;
51862;SDS011;37900;52.996;6.278;2023-01-15T11:20:00;3.17;;;1.90;;
51862;SDS011;37900;52.996;6.278;2023-01-15T11:22:27;5.22;;;2.20;;
51862;SDS011;37900;52.996;6.278;2023-01-15T11:24:54;3.40;;;2.03;;
51862;SDS011;37900;52.996;6.278;2023-01-15T11:27:23;5.25;;;2.05;;
51862;SDS011;37900;52.996;6.278;2023-01-15T11:29:53;3.55;;;1.73;;
51862;SDS011;37900;52.996;6.278;2023-01-15T11:32:25;4.95;;;2.20;;
51862;SDS011;37900;52.996;6.278;2023-01-15T11:34:55;3.22;;;1.70;;
51862;SDS011;37900;52.996;6.278;2023-01-15T11:37:22;5.70;;;2.00;;
51862;SDS011;37900;52.996;6.278;2023-01-15T11:39:52;3.22;;;1.88;;
51862;SDS011;37900;52.996;6.278;2023-01-15T11:42:22;2.95;;;2.25;;
51862;SDS011;37900;52.996;6.278;2023-01-15T11:45:14;6.07;;;1.83;;
51862;SDS011;37900;52.996;6.278;2023-01-15T11:48:12;2.78;;;1.67;;
51862;SDS011;37900;52.996;6.278;2023-01-15T11:56:32;5.55;;;1.98;;
51862;SDS011;37900;52.996;6.278;2023-01-15T11:59:00;3.63;;;1.85;;
51862;SDS011;37900;52.996;6.278;2023-01-15T12:01:35;4.78;;;2.00;;
51862;SDS011;37900;52.996;6.278;2023-01-15T12:04:51;2.88;;;1.58;;
51862;SDS011;37900;52.996;6.278;2023-01-15T12:06:59;2.42;;;1.38;;
51862;SDS011;37900;52.996;6.278;2023-01-15T12:23:27;4.65;;;1.77;;
51862;SDS011;37900;52.996;6.278;2023-01-15T12:28:39;4.25;;;1.90;;
51862;SDS011;37900;52.996;6.278;2023-01-15T12:31:13;3.90;;;1.50;;
51862;SDS011;37900;52.996;6.278;2023-01-15T12:36:47;2.60;;;1.55;;
51862;SDS011;37900;52.996;6.278;2023-01-15T12:39:21;3.60;;;1.60;;
51862;SDS011;37900;52.996;6.278;2023-01-15T12:42:07;4.93;;;1.77;;
51862;SDS011;37900;52.996;6.278;2023-01-15T12:45:19;5.68;;;1.95;;
51862;SDS011;37900;52.996;6.278;2023-01-15T12:47:52;4.20;;;1.90;;
51862;SDS011;37900;52.996;6.278;2023-01-15T12:53:12;3.00;;;1.17;;
51862;SDS011;37900;52.996;6.278;2023-01-15T12:55:47;4.15;;;1.70;;
51862;SDS011;37900;52.996;6.278;2023-01-15T12:58:30;3.92;;;1.90;;
51862;SDS011;37900;52.996;6.278;2023-01-15T13:06:14;2.58;;;1.70;;
51862;SDS011;37900;52.996;6.278;2023-01-15T13:11:18;2.47;;;1.70;;
51862;SDS011;37900;52.996;6.278;2023-01-15T13:13:44;2.75;;;1.17;;
51862;SDS011;37900;52.996;6.278;2023-01-15T13:32:44;3.22;;;1.42;;
51862;SDS011;37900;52.996;6.278;2023-01-15T13:35:25;4.22;;;1.77;;
51862;SDS011;37900;52.996;6.278;2023-01-15T13:37:55;4.70;;;2.00;;
51862;SDS011;37900;52.996;6.278;2023-01-15T13:40:38;3.08;;;1.50;;
51862;SDS011;37900;52.996;6.278;2023-01-15T13:43:08;5.32;;;1.80;;
51862;SDS011;37900;52.996;6.278;2023-01-15T13:45:58;3.15;;;1.48;;
51862;SDS011;37900;52.996;6.278;2023-01-15T13:51:31;2.60;;;1.35;;
51862;SDS011;37900;52.996;6.278;2023-01-15T13:54:12;4.03;;;1.48;;
51862;SDS011;37900;52.996;6.278;2023-01-15T13:56:43;3.42;;;1.48;;
51862;SDS011;37900;52.996;6.278;2023-01-15T14:02:20;2.70;;;1.40;;
51862;SDS011;37900;52.996;6.278;2023-01-15T14:04:52;3.55;;;1.42;;
51862;SDS011;37900;52.996;6.278;2023-01-15T14:07:29;3.13;;;1.65;;
51862;SDS011;37900;52.996;6.278;2023-01-15T14:34:25;3.55;;;1.30;;
51862;SDS011;37900;52.996;6.278;2023-01-15T14:47:41;3.35;;;1.38;;
51862;SDS011;37900;52.996;6.278;2023-01-15T14:52:48;2.28;;;1.08;;
51862;SDS011;37900;52.996;6.278;2023-01-15T14:57:43;2.20;;;1.48;;
51862;SDS011;37900;52.996;6.278;2023-01-15T15:00:16;2.63;;;1.45;;
51862;SDS011;37900;52.996;6.278;2023-01-15T15:02:44;1.52;;;1.00;;
51862;SDS011;37900;52.996;6.278;2023-01-15T15:05:13;3.33;;;1.25;;
51862;SDS011;37900;52.996;6.278;2023-01-15T15:07:42;3.50;;;1.33;;
51862;SDS011;37900;52.996;6.278;2023-01-15T15:15:36;3.00;;;1.08;;
51862;SDS011;37900;52.996;6.278;2023-01-15T15:23:42;2.50;;;1.60;;
51862;SDS011;37900;52.996;6.278;2023-01-15T15:26:22;3.00;;;1.20;;
51862;SDS011;37900;52.996;6.278;2023-01-15T15:28:59;1.98;;;1.10;;
51862;SDS011;37900;52.996;6.278;2023-01-15T15:31:47;3.72;;;1.38;;
51862;SDS011;37900;52.996;6.278;2023-01-15T15:36:54;2.92;;;1.23;;
51862;SDS011;37900;52.996;6.278;2023-01-15T15:41:53;3.40;;;1.20;;
51862;SDS011;37900;52.996;6.278;2023-01-15T15:44:49;3.15;;;1.30;;
51862;SDS011;37900;52.996;6.278;2023-01-15T15:47:38;2.47;;;1.15;;
51862;SDS011;37900;52.996;6.278;2023-01-15T15:50:26;3.03;;;1.23;;
51862;SDS011;37900;52.996;6.278;2023-01-15T15:52:56;2.20;;;1.10;;
51862;SDS011;37900;52.996;6.278;2023-01-15T15:55:24;2.90;;;1.15;;
51862;SDS011;37900;52.996;6.278;2023-01-15T15:57:56;2.70;;;1.42;;
51862;SDS011;37900;52.996;6.278;2023-01-15T16:00:30;1.85;;;0.98;;
51862;SDS011;37900;52.996;6.278;2023-01-15T16:03:00;1.88;;;1.35;;
51862;SDS011;37900;52.996;6.278;2023-01-15T16:05:31;2.92;;;1.17;;
51862;SDS011;37900;52.996;6.278;2023-01-15T16:08:15;4.05;;;1.45;;
51862;SDS011;37900;52.996;6.278;2023-01-15T16:10:43;2.28;;;1.00;;
51862;SDS011;37900;52.996;6.278;2023-01-15T16:13:18;1.90;;;1.05;;
51862;SDS011;37900;52.996;6.278;2023-01-15T16:15:51;2.58;;;1.23;;
51862;SDS011;37900;52.996;6.278;2023-01-15T16:20:52;1.60;;;0.77;;
51862;SDS011;37900;52.996;6.278;2023-01-15T16:23:28;2.55;;;1.42;;
51862;SDS011;37900;52.996;6.278;2023-01-15T16:26:12;2.03;;;1.13;;
51862;SDS011;37900;52.996;6.278;2023-01-15T16:29:14;2.22;;;1.30;;
51862;SDS011;37900;52.996;6.278;2023-01-15T16:31:43;1.08;;;0.90;;
51862;SDS011;37900;52.996;6.278;2023-01-15T16:34:15;2.22;;;1.00;;
51862;SDS011;37900;52.996;6.278;2023-01-15T16:36:44;1.73;;;0.82;;
51862;SDS011;37900;52.996;6.278;2023-01-15T16:45:19;2.03;;;1.48;;
51862;SDS011;37900;52.996;6.278;2023-01-15T16:47:59;2.28;;;1.48;;
51862;SDS011;37900;52.996;6.278;2023-01-15T16:50:31;2.35;;;1.08;;
51862;SDS011;37900;52.996;6.278;2023-01-15T16:52:58;2.55;;;1.00;;
51862;SDS011;37900;52.996;6.278;2023-01-15T16:55:33;1.17;;;0.80;;
51862;SDS011;37900;52.996;6.278;2023-01-15T17:00:39;4.32;;;1.77;;
51862;SDS011;37900;52.996;6.278;2023-01-15T17:03:11;1.65;;;0.95;;
51862;SDS011;37900;52.996;6.278;2023-01-15T17:05:42;1.33;;;0.70;;
51862;SDS011;37900;52.996;6.278;2023-01-15T17:08:18;2.90;;;1.30;;
51862;SDS011;37900;52.996;6.278;2023-01-15T17:10:55;2.50;;;1.25;;
51862;SDS011;37900;52.996;6.278;2023-01-15T17:13:36;1.52;;;0.98;;
51862;SDS011;37900;52.996;6.278;2023-01-15T17:18:45;2.08;;;0.75;;
51862;SDS011;37900;52.996;6.278;2023-01-15T17:21:16;1.98;;;1.42;;
51862;SDS011;37900;52.996;6.278;2023-01-15T17:23:45;2.75;;;1.10;;
51862;SDS011;37900;52.996;6.278;2023-01-15T17:26:19;1.80;;;1.00;;
51862;SDS011;37900;52.996;6.278;2023-01-15T17:28:47;2.88;;;1.02;;
51862;SDS011;37900;52.996;6.278;2023-01-15T17:33:54;1.45;;;1.02;;
51862;SDS011;37900;52.996;6.278;2023-01-15T17:36:24;1.80;;;0.95;;
51862;SDS011;37900;52.996;6.278;2023-01-15T17:38:52;2.20;;;1.10;;
51862;SDS011;37900;52.996;6.278;2023-01-15T17:41:19;1.60;;;1.00;;
51862;SDS011;37900;52.996;6.278;2023-01-15T17:46:12;1.83;;;0.85;;
51862;SDS011;37900;52.996;6.278;2023-01-15T17:48:38;2.20;;;1.13;;
51862;SDS011;37900;52.996;6.278;2023-01-15T17:51:05;3.45;;;1.40;;
51862;SDS011;37900;52.996;6.278;2023-01-15T17:53:34;1.90;;;0.90;;
51862;SDS011;37900;52.996;6.278;2023-01-15T17:56:00;2.50;;;0.70;;
51862;SDS011;37900;52.996;6.278;2023-01-15T17:58:45;1.88;;;0.95;;
51862;SDS011;37900;52.996;6.278;2023-01-15T18:01:32;3.30;;;1.40;;
51862;SDS011;37900;52.996;6.278;2023-01-15T18:04:36;2.75;;;1.17;;
51862;SDS011;37900;52.996;6.278;2023-01-15T18:07:25;11.90;;;5.18;;
51862;SDS011;37900;52.996;6.278;2023-01-15T18:09:57;24.85;;;10.10;;
51862;SDS011;37900;52.996;6.278;2023-01-15T18:12:24;29.98;;;12.10;;
51862;SDS011;37900;52.996;6.278;2023-01-15T18:14:50;18.48;;;7.32;;
51862;SDS011;37900;52.996;6.278;2023-01-15T18:17:16;9.43;;;4.05;;
51862;SDS011;37900;52.996;6.278;2023-01-15T18:19:42;9.80;;;4.22;;
51862;SDS011;37900;52.996;6.278;2023-01-15T18:22:07;14.43;;;5.00;;
51862;SDS011;37900;52.996;6.278;2023-01-15T18:24:34;14.63;;;5.60;;
51862;SDS011;37900;52.996;6.278;2023-01-15T18:27:00;10.18;;;4.50;;
51862;SDS011;37900;52.996;6.278;2023-01-15T18:29:26;15.02;;;5.68;;
51862;SDS011;37900;52.996;6.278;2023-01-15T18:31:51;12.93;;;4.72;;
51862;SDS011;37900;52.996;6.278;2023-01-15T18:34:17;16.40;;;5.45;;